createdAt,value
2019-02-17T00:00:10.101Z,19.6
2019-02-17T00:01:00.198Z,19.6
2019-02-17T00:01:49.965Z,19.6
2019-02-17T00:02:40.282Z,19.6
2019-02-17T00:03:30.088Z,19.6
2019-02-17T00:04:20.407Z,19.7
2019-02-17T00:05:09.920Z,19.6
2019-02-17T00:06:00.850Z,19.6
2019-02-17T00:06:50.590Z,19.6
2019-02-17T00:07:40.367Z,19.6
2019-02-17T00:08:29.887Z,19.6
2019-02-17T00:09:20.569Z,19.7
2019-02-17T00:10:10.261Z,19.6
2019-02-17T00:11:01.160Z,19.6
2019-02-17T00:11:50.183Z,19.6
2019-02-17T00:12:40.507Z,19.6
2019-02-17T00:13:30.785Z,19.6
2019-02-17T00:14:21.414Z,19.6
2019-02-17T00:15:10.890Z,19.6
2019-02-17T00:16:01.490Z,19.6
2019-02-17T00:16:51.544Z,19.6
2019-02-17T00:17:41.612Z,19.6
2019-02-17T00:18:31.112Z,19.6
2019-02-17T00:19:21.741Z,19.6
2019-02-17T00:20:11.227Z,19.6
2019-02-17T00:21:01.592Z,19.6
2019-02-17T00:21:51.642Z,19.6
2019-02-17T00:22:41.397Z,19.6
2019-02-17T00:23:32.014Z,19.6
2019-02-17T00:24:22.084Z,19.6
2019-02-17T00:25:11.640Z,19.6
2019-02-17T00:26:01.652Z,19.6
2019-02-17T00:26:52.009Z,19.6
2019-02-17T00:27:42.026Z,19.6
2019-02-17T00:28:31.806Z,19.6
2019-02-17T00:29:22.427Z,19.6
2019-02-17T00:30:12.469Z,19.6
2019-02-17T00:31:02.273Z,19.6
2019-02-17T00:31:52.078Z,19.6
2019-02-17T00:32:42.645Z,19.6
2019-02-17T00:33:31.926Z,19.6
2019-02-17T00:34:22.821Z,19.6
2019-02-17T00:35:12.286Z,19.6
2019-02-17T00:36:02.675Z,19.6
2019-02-17T00:36:52.683Z,19.6
2019-02-17T00:37:43.013Z,19.6
2019-02-17T00:38:33.038Z,19.6
2019-02-17T00:39:22.563Z,19.6
2019-02-17T00:40:13.174Z,19.6
2019-02-17T00:41:02.675Z,19.6
2019-02-17T00:41:53.021Z,19.6
2019-02-17T00:42:42.788Z,19.6
2019-02-17T00:43:33.173Z,19.6
2019-02-17T00:44:23.246Z,19.6
2019-02-17T00:45:12.959Z,19.6
2019-02-17T00:46:03.297Z,19.6
2019-02-17T00:46:53.740Z,19.6
2019-02-17T00:47:42.873Z,19.6
2019-02-17T00:48:33.468Z,19.6
2019-02-17T00:49:23.295Z,19.6
2019-02-17T00:50:13.642Z,19.6
2019-02-17T00:51:03.627Z,19.6
2019-02-17T00:51:53.722Z,19.6
2019-02-17T00:52:43.819Z,19.6
2019-02-17T00:53:33.875Z,19.6
2019-02-17T00:54:23.870Z,19.6
2019-02-17T00:55:14.205Z,19.6
2019-02-17T00:56:04.271Z,19.6
2019-02-17T00:56:53.775Z,19.6
2019-02-17T00:57:43.827Z,19.6
2019-02-17T00:58:34.444Z,19.6
2019-02-17T00:59:24.547Z,19.6
2019-02-17T01:00:14.333Z,19.6
2019-02-17T01:01:03.783Z,19.6
2019-02-17T01:01:53.901Z,19.6
2019-02-17T01:02:44.458Z,19.5
2019-02-17T01:03:34.870Z,19.5
2019-02-17T01:04:24.573Z,19.5
2019-02-17T01:05:14.714Z,19.5
2019-02-17T01:06:03.910Z,19.6
2019-02-17T01:06:54.519Z,19.5
2019-02-17T01:07:44.818Z,19.6
2019-02-17T01:08:34.585Z,19.6
2019-02-17T01:09:24.918Z,19.5
2019-02-17T01:10:15.090Z,19.6
2019-02-17T01:11:05.106Z,19.6
2019-02-17T01:11:54.557Z,19.5
2019-02-17T01:12:44.594Z,19.5
2019-02-17T01:13:35.521Z,19.5
2019-02-17T01:14:25.264Z,19.5
2019-02-17T01:15:14.962Z,19.5
2019-02-17T01:16:04.814Z,19.5
2019-02-17T01:16:55.304Z,19.5
2019-02-17T01:17:45.006Z,19.5
2019-02-17T01:18:35.069Z,19.5
2019-02-17T01:19:25.899Z,19.5
2019-02-17T01:20:15.955Z,19.5
2019-02-17T01:21:05.724Z,19.5
2019-02-17T01:21:56.061Z,19.5
2019-02-17T01:22:45.841Z,19.5
2019-02-17T01:23:35.886Z,19.5
2019-02-17T01:24:25.683Z,19.5
2019-02-17T01:25:16.310Z,19.5
2019-02-17T01:26:06.346Z,19.5
2019-02-17T01:26:55.858Z,19.5
2019-02-17T01:27:45.933Z,19.5
2019-02-17T01:28:36.516Z,19.4
2019-02-17T01:29:26.323Z,19.5
2019-02-17T01:30:16.658Z,19.5
2019-02-17T01:31:08.909Z,19.5
2019-02-17T01:31:56.471Z,19.5
2019-02-17T01:32:46.826Z,19.5
2019-02-17T01:33:36.579Z,19.4
2019-02-17T01:34:26.665Z,19.4
2019-02-17T01:35:16.440Z,19.5
2019-02-17T01:36:06.822Z,19.4
2019-02-17T01:36:56.562Z,19.5
2019-02-17T01:37:47.180Z,19.4
2019-02-17T01:38:37.275Z,19.4
2019-02-17T01:39:27.280Z,19.5
2019-02-17T01:40:16.512Z,19.5
2019-02-17T01:41:07.391Z,19.4
2019-02-17T01:41:57.440Z,19.5
2019-02-17T01:42:47.229Z,19.5
2019-02-17T01:43:37.327Z,19.4
2019-02-17T01:44:26.826Z,19.4
2019-02-17T01:45:17.746Z,19.4
2019-02-17T01:46:07.441Z,19.4
2019-02-17T01:46:57.525Z,19.4
2019-02-17T01:47:47.578Z,19.4
2019-02-17T01:48:37.631Z,19.4
2019-02-17T01:49:27.751Z,19.4
2019-02-17T01:50:17.468Z,19.4
2019-02-17T01:51:07.588Z,19.4
2019-02-17T01:51:58.126Z,19.4
2019-02-17T01:52:47.673Z,19.4
2019-02-17T01:53:37.700Z,19.4
2019-02-17T01:54:28.375Z,19.4
2019-02-17T01:55:17.845Z,19.4
2019-02-17T01:56:07.622Z,19.4
2019-02-17T01:56:58.221Z,19.4
2019-02-17T01:57:48.266Z,19.4
2019-02-17T01:58:38.050Z,19.4
2019-02-17T01:59:34.074Z,19.4
2019-02-17T02:00:17.894Z,19.4
2019-02-17T02:01:08.214Z,19.4
2019-02-17T02:01:58.283Z,19.4
2019-02-17T02:02:48.897Z,19.4
2019-02-17T02:03:38.959Z,19.4
2019-02-17T02:04:28.734Z,19.4
2019-02-17T02:05:18.807Z,19.4
2019-02-17T02:06:08.086Z,19.4
2019-02-17T02:06:58.143Z,19.4
2019-02-17T02:07:48.194Z,19.4
2019-02-17T02:08:38.851Z,19.4
2019-02-17T02:09:28.608Z,19.4
2019-02-17T02:10:18.363Z,19.4
2019-02-17T02:11:09.194Z,19.4
2019-02-17T02:11:59.528Z,19.4
2019-02-17T02:12:49.315Z,19.4
2019-02-17T02:13:39.363Z,19.4
2019-02-17T02:14:29.429Z,19.4
2019-02-17T02:15:19.479Z,19.4
2019-02-17T02:16:08.785Z,19.4
2019-02-17T02:16:58.854Z,19.4
2019-02-17T02:17:49.175Z,19.4
2019-02-17T02:18:39.533Z,19.4
2019-02-17T02:19:29.013Z,19.4
2019-02-17T02:20:19.630Z,19.4
2019-02-17T02:21:09.882Z,19.4
2019-02-17T02:22:00.029Z,19.4
2019-02-17T02:22:49.712Z,19.4
2019-02-17T02:23:40.065Z,19.4
2019-02-17T02:24:30.395Z,19.4
2019-02-17T02:25:20.190Z,19.4
2019-02-17T02:26:10.507Z,19.4
2019-02-17T02:27:00.027Z,19.4
2019-02-17T02:27:50.082Z,19.4
2019-02-17T02:28:40.402Z,19.4
2019-02-17T02:29:29.974Z,19.4
2019-02-17T02:30:19.848Z,19.3
2019-02-17T02:31:10.342Z,19.4
2019-02-17T02:32:00.675Z,19.3
2019-02-17T02:32:50.459Z,19.4
2019-02-17T02:33:40.206Z,19.4
2019-02-17T02:34:30.798Z,19.4
2019-02-17T02:35:20.611Z,19.3
2019-02-17T02:36:10.694Z,19.4
2019-02-17T02:37:01.407Z,19.4
2019-02-17T02:37:50.528Z,19.3
2019-02-17T02:38:40.909Z,19.3
2019-02-17T02:39:31.171Z,19.3
2019-02-17T02:40:21.606Z,19.3
2019-02-17T02:41:11.551Z,19.3
2019-02-17T02:42:01.059Z,19.3
2019-02-17T02:42:51.426Z,19.3
2019-02-17T02:43:41.180Z,19.4
2019-02-17T02:44:31.527Z,19.3
2019-02-17T02:45:21.561Z,19.3
2019-02-17T02:46:11.639Z,19.3
2019-02-17T02:47:01.990Z,19.3
2019-02-17T02:47:51.183Z,19.3
2019-02-17T02:48:41.555Z,19.3
2019-02-17T02:49:31.582Z,19.3
2019-02-17T02:50:22.205Z,19.3
2019-02-17T02:51:12.260Z,19.3
2019-02-17T02:52:02.317Z,19.3
2019-02-17T02:52:51.883Z,19.3
2019-02-17T02:53:42.539Z,19.3
2019-02-17T02:54:32.503Z,19.3
2019-02-17T02:55:21.739Z,19.3
2019-02-17T02:56:12.602Z,19.3
2019-02-17T02:57:02.664Z,19.3
2019-02-17T02:57:52.196Z,19.3
2019-02-17T02:58:42.773Z,19.3
2019-02-17T02:59:32.016Z,19.3
2019-02-17T03:00:22.970Z,19.3
2019-02-17T03:01:12.687Z,19.3
2019-02-17T03:02:02.484Z,19.3
2019-02-17T03:02:53.090Z,19.3
2019-02-17T03:03:45.861Z,19.3
2019-02-17T03:04:33.184Z,19.3
2019-02-17T03:08:05.674Z,19.3
2019-02-17T03:08:55.694Z,19.3
2019-02-17T03:09:45.476Z,19.3
2019-02-17T03:10:35.242Z,19.3
2019-02-17T03:11:25.880Z,19.3
2019-02-17T03:12:15.636Z,19.3
2019-02-17T03:13:05.703Z,19.3
2019-02-17T03:13:55.822Z,19.3
2019-02-17T03:14:44.985Z,19.3
2019-02-17T03:15:35.579Z,19.3
2019-02-17T03:16:25.915Z,19.3
2019-02-17T03:17:16.070Z,19.3
2019-02-17T03:18:06.061Z,19.3
2019-02-17T03:18:55.813Z,19.3
2019-02-17T03:19:45.904Z,19.3
2019-02-17T03:20:36.469Z,19.3
2019-02-17T03:21:26.275Z,19.3
2019-02-17T03:22:16.404Z,19.3
2019-02-17T03:23:06.376Z,19.3
2019-02-17T03:23:55.885Z,19.3
2019-02-17T03:24:46.243Z,19.3
2019-02-17T03:25:36.283Z,19.3
2019-02-17T03:26:26.615Z,19.3
2019-02-17T03:27:16.758Z,19.3
2019-02-17T03:28:06.447Z,19.3
2019-02-17T03:28:56.823Z,19.3
2019-02-17T03:29:46.848Z,19.3
2019-02-17T03:30:37.335Z,19.3
2019-02-17T03:31:27.119Z,19.3
2019-02-17T03:32:16.950Z,19.3
2019-02-17T03:33:06.848Z,19.3
2019-02-17T03:33:56.921Z,19.3
2019-02-17T03:34:47.456Z,19.3
2019-02-17T03:35:37.279Z,19.3
2019-02-17T03:36:27.007Z,19.3
2019-02-17T03:37:17.642Z,19.3
2019-02-17T03:38:07.680Z,19.3
2019-02-17T03:38:57.466Z,19.3
2019-02-17T03:39:47.831Z,19.3
2019-02-17T03:40:37.009Z,19.3
2019-02-17T03:41:27.917Z,19.2
2019-02-17T03:42:17.137Z,19.2
2019-02-17T03:43:08.043Z,19.3
2019-02-17T03:43:57.844Z,19.3
2019-02-17T03:44:48.149Z,19.2
2019-02-17T03:45:37.944Z,19.2
2019-02-17T03:46:27.739Z,19.3
2019-02-17T03:47:17.840Z,19.2
2019-02-17T03:48:08.122Z,19.3
2019-02-17T03:48:58.127Z,19.2
2019-02-17T03:49:48.513Z,19.3
2019-02-17T03:50:37.724Z,19.2
2019-02-17T03:51:28.324Z,19.3
2019-02-17T03:52:18.104Z,19.3
2019-02-17T03:53:08.424Z,19.2
2019-02-17T03:53:58.225Z,19.2
2019-02-17T03:54:48.818Z,19.3
2019-02-17T03:55:38.893Z,19.2
2019-02-17T03:56:28.709Z,19.3
2019-02-17T03:57:19.014Z,19.2
2019-02-17T03:58:08.231Z,19.2
2019-02-17T03:58:58.933Z,19.3
2019-02-17T03:59:49.203Z,19.3
2019-02-17T04:00:38.676Z,19.2
2019-02-17T04:01:29.112Z,19.2
2019-02-17T04:02:19.058Z,19.2
2019-02-17T04:03:09.108Z,19.2
2019-02-17T04:03:59.266Z,19.2
2019-02-17T04:04:48.708Z,19.2
2019-02-17T04:05:38.803Z,19.2
2019-02-17T04:06:29.358Z,19.2
2019-02-17T04:07:19.415Z,19.2
2019-02-17T04:08:09.472Z,19.2
2019-02-17T04:08:59.895Z,19.2
2019-02-17T04:09:49.918Z,19.2
2019-02-17T04:10:39.399Z,19.2
2019-02-17T04:11:29.963Z,19.2
2019-02-17T04:12:20.043Z,19.2
2019-02-17T04:13:09.820Z,19.2
2019-02-17T04:13:59.645Z,19.1
2019-02-17T04:14:49.961Z,19.2
2019-02-17T04:15:40.008Z,19.2
2019-02-17T04:16:30.318Z,19.2
2019-02-17T04:17:20.141Z,19.2
2019-02-17T04:18:10.152Z,19.2
2019-02-17T04:19:00.193Z,19.1
2019-02-17T04:19:50.023Z,19.2
2019-02-17T04:20:40.652Z,19.2
2019-02-17T04:21:33.220Z,19.2
2019-02-17T04:22:20.762Z,19.2
2019-02-17T04:23:09.947Z,19.1
2019-02-17T04:24:00.294Z,19.1
2019-02-17T04:24:50.349Z,19.2
2019-02-17T04:25:40.554Z,19.2
2019-02-17T04:26:30.467Z,19.2
2019-02-17T04:27:20.549Z,19.2
2019-02-17T04:28:10.599Z,19.1
2019-02-17T04:29:01.287Z,19.1
2019-02-17T04:29:50.980Z,19.2
2019-02-17T04:30:41.135Z,19.1
2019-02-17T04:31:31.421Z,19.1
2019-02-17T04:32:21.147Z,19.1
2019-02-17T04:33:10.930Z,19.2
2019-02-17T04:34:00.746Z,19.1
2019-02-17T04:34:51.334Z,19.1
2019-02-17T04:35:41.479Z,19.2
2019-02-17T04:36:31.146Z,19.1
2019-02-17T04:37:21.491Z,19.2
2019-02-17T04:38:11.566Z,19.1
2019-02-17T04:39:01.333Z,19.1
2019-02-17T04:39:52.048Z,19.1
2019-02-17T04:40:41.186Z,19.1
2019-02-17T04:41:32.044Z,19.1
2019-02-17T04:42:21.833Z,19.1
2019-02-17T04:43:11.978Z,19.1
2019-02-17T04:44:01.676Z,19.1
2019-02-17T04:44:52.011Z,19.1
2019-02-17T04:45:41.553Z,19.1
2019-02-17T04:46:32.458Z,19.1
2019-02-17T04:47:21.912Z,19.1
2019-02-17T04:48:12.503Z,19.1
2019-02-17T04:49:02.644Z,19.1
2019-02-17T04:49:52.734Z,19.1
2019-02-17T04:50:42.403Z,19.1
2019-02-17T04:51:31.881Z,19.1
2019-02-17T04:52:22.507Z,19.1
2019-02-17T04:53:12.582Z,19.1
2019-02-17T04:54:02.665Z,19.1
2019-02-17T04:54:52.692Z,19.1
2019-02-17T04:55:42.227Z,19.1
2019-02-17T04:56:32.825Z,19.1
2019-02-17T04:57:22.342Z,19.1
2019-02-17T04:58:12.655Z,19.1
2019-02-17T04:59:03.301Z,19.1
2019-02-17T04:59:52.764Z,19.1
2019-02-17T05:00:43.925Z,19.1
2019-02-17T05:01:32.889Z,19.1
2019-02-17T05:02:23.239Z,19.1
2019-02-17T05:03:12.996Z,19.1
2019-02-17T05:04:02.766Z,19.1
2019-02-17T05:04:53.116Z,19.1
2019-02-17T05:05:43.556Z,19.1
2019-02-17T05:06:33.645Z,19.1
2019-02-17T05:07:23.670Z,19.1
2019-02-17T05:08:13.619Z,19.1
2019-02-17T05:09:03.676Z,19.1
2019-02-17T05:09:53.819Z,19.1
2019-02-17T05:10:43.622Z,19.1
2019-02-17T05:11:33.892Z,19.1
2019-02-17T05:12:23.910Z,19.1
2019-02-17T05:13:13.959Z,19.1
2019-02-17T05:14:04.024Z,19.1
2019-02-17T05:14:53.819Z,19.1
2019-02-17T05:15:44.430Z,19.1
2019-02-17T05:16:34.182Z,19.1
2019-02-17T05:17:24.231Z,19.1
2019-02-17T05:18:14.319Z,19.1
2019-02-17T05:19:04.723Z,19.1
2019-02-17T05:19:54.129Z,19.1
2019-02-17T05:20:44.248Z,19.1
2019-02-17T05:21:34.536Z,19.1
2019-02-17T05:22:24.569Z,19.1
2019-02-17T05:23:14.394Z,19.1
2019-02-17T05:24:04.730Z,19.1
2019-02-17T05:24:54.788Z,19.1
2019-02-17T05:25:44.839Z,19.1
2019-02-17T05:26:34.337Z,19.1
2019-02-17T05:27:24.965Z,19.1
2019-02-17T05:28:15.013Z,19.1
2019-02-17T05:29:05.046Z,19.1
2019-02-17T05:29:54.597Z,19.1
2019-02-17T05:30:56.203Z,19.1
2019-02-17T05:31:35.240Z,19.1
2019-02-17T05:32:24.733Z,19.1
2019-02-17T05:33:14.822Z,19.1
2019-02-17T05:34:05.186Z,19.1
2019-02-17T05:34:55.734Z,19.1
2019-02-17T05:35:45.838Z,19.1
2019-02-17T05:36:35.580Z,19.1
2019-02-17T05:37:25.658Z,19.1
2019-02-17T05:38:15.460Z,19.1
2019-02-17T05:39:05.223Z,19.1
2019-02-17T05:39:55.859Z,19.1
2019-02-17T05:40:46.125Z,19.1
2019-02-17T05:41:36.204Z,19.1
2019-02-17T05:42:25.956Z,19.1
2019-02-17T05:43:15.307Z,19.1
2019-02-17T05:44:05.859Z,19.1
2019-02-17T05:44:56.146Z,19.1
2019-02-17T05:45:46.562Z,19.1
2019-02-17T05:46:36.542Z,19.1
2019-02-17T05:47:26.288Z,19.1
2019-02-17T05:48:16.370Z,19.1
2019-02-17T05:49:06.475Z,19.1
2019-02-17T05:49:56.497Z,19.1
2019-02-17T05:50:46.399Z,19.1
2019-02-17T05:51:36.647Z,19.1
2019-02-17T05:52:26.461Z,19.1
2019-02-17T05:53:17.017Z,19.1
2019-02-17T05:54:06.770Z,19.1
2019-02-17T05:54:56.562Z,19.1
2019-02-17T05:55:47.162Z,19.1
2019-02-17T05:56:36.924Z,19.1
2019-02-17T05:57:27.266Z,19.1
2019-02-17T05:58:17.044Z,19.1
2019-02-17T05:59:07.116Z,19.1
2019-02-17T05:59:56.864Z,19.1
2019-02-17T06:00:47.235Z,19.1
2019-02-17T06:01:37.589Z,19.1
2019-02-17T06:02:26.569Z,19.1
2019-02-17T06:03:17.109Z,19.1
2019-02-17T06:04:07.439Z,19.2
2019-02-17T06:06:05.208Z,19.3
2019-02-17T06:06:54.959Z,19.3
2019-02-17T06:07:45.349Z,19.4
2019-02-17T06:08:35.071Z,19.4
2019-02-17T06:09:25.726Z,19.4
2019-02-17T06:10:15.213Z,19.4
2019-02-17T06:11:05.348Z,19.5
2019-02-17T06:11:55.836Z,19.5
2019-02-17T06:12:45.966Z,19.4
2019-02-17T06:13:35.204Z,19.4
2019-02-17T06:14:26.065Z,19.4
2019-02-17T06:15:15.545Z,19.4
2019-02-17T06:16:05.642Z,19.4
2019-02-17T06:16:55.941Z,19.4
2019-02-17T06:17:45.428Z,19.4
2019-02-17T06:18:35.756Z,19.4
2019-02-17T06:19:25.814Z,19.4
2019-02-17T06:20:15.876Z,19.4
2019-02-17T06:21:06.201Z,19.3
2019-02-17T06:21:56.258Z,19.3
2019-02-17T06:22:45.419Z,19.4
2019-02-17T06:23:35.942Z,19.3
2019-02-17T06:24:26.413Z,19.3
2019-02-17T06:25:16.356Z,19.3
2019-02-17T06:26:06.630Z,19.3
2019-02-17T06:26:56.610Z,19.3
2019-02-17T06:27:46.965Z,19.3
2019-02-17T06:28:37.002Z,19.3
2019-02-17T06:29:26.917Z,19.3
2019-02-17T06:30:17.120Z,19.3
2019-02-17T06:31:17.795Z,19.3
2019-02-17T06:31:56.948Z,19.3
2019-02-17T06:32:46.455Z,19.3
2019-02-17T06:33:36.517Z,19.3
2019-02-17T06:34:27.112Z,19.3
2019-02-17T06:35:17.465Z,19.3
2019-02-17T06:36:07.307Z,19.3
2019-02-17T06:36:57.023Z,19.3
2019-02-17T06:37:47.068Z,19.3
2019-02-17T06:38:36.870Z,19.3
2019-02-17T06:39:27.192Z,19.3
2019-02-17T06:40:16.689Z,19.3
2019-02-17T06:41:07.610Z,19.3
2019-02-17T06:41:57.940Z,19.3
2019-02-17T06:42:48.072Z,19.3
2019-02-17T06:43:38.060Z,19.3
2019-02-17T06:44:27.085Z,19.3
2019-02-17T06:45:19.984Z,19.3
2019-02-17T06:46:07.674Z,19.3
2019-02-17T06:46:57.730Z,19.3
2019-02-17T06:47:48.298Z,19.3
2019-02-17T06:48:38.077Z,19.3
2019-02-17T06:49:27.386Z,19.3
2019-02-17T06:50:17.982Z,19.3
2019-02-17T06:51:08.534Z,19.3
2019-02-17T06:51:58.354Z,19.3
2019-02-17T06:52:48.099Z,19.3
2019-02-17T06:53:38.692Z,19.3
2019-02-17T06:54:28.001Z,19.3
2019-02-17T06:55:17.796Z,19.3
2019-02-17T06:56:11.029Z,19.3
2019-02-17T06:56:57.834Z,19.3
2019-02-17T06:57:47.901Z,19.3
2019-02-17T06:58:39.103Z,19.3
2019-02-17T06:59:29.098Z,19.2
2019-02-17T07:00:18.334Z,19.3
2019-02-17T07:01:08.953Z,19.3
2019-02-17T07:01:58.996Z,19.3
2019-02-17T07:02:49.071Z,19.3
2019-02-17T07:03:39.569Z,19.3
2019-02-17T07:06:05.295Z,19.2
2019-02-17T07:06:55.372Z,19.2
2019-02-17T07:07:45.085Z,19.2
2019-02-17T07:08:34.868Z,19.3
2019-02-17T07:09:24.889Z,19.3
2019-02-17T07:10:15.468Z,19.2
2019-02-17T07:11:04.975Z,19.2
2019-02-17T07:11:58.495Z,19.2
2019-02-17T07:12:46.132Z,19.2
2019-02-17T07:13:35.620Z,19.2
2019-02-17T07:14:25.970Z,19.2
2019-02-17T07:15:15.473Z,19.2
2019-02-17T07:16:05.798Z,19.3
2019-02-17T07:16:55.575Z,19.2
2019-02-17T07:17:45.645Z,19.2
2019-02-17T07:18:36.250Z,19.2
2019-02-17T07:19:25.485Z,19.2
2019-02-17T07:20:16.107Z,19.2
2019-02-17T07:21:06.425Z,19.2
2019-02-17T07:21:55.645Z,19.2
2019-02-17T07:22:46.334Z,19.2
2019-02-17T07:23:36.338Z,19.2
2019-02-17T07:24:26.680Z,19.2
2019-02-17T07:25:16.454Z,19.2
2019-02-17T07:26:06.482Z,19.2
2019-02-17T07:26:56.597Z,19.1
2019-02-17T07:27:46.870Z,19.2
2019-02-17T07:28:36.650Z,19.2
2019-02-17T07:29:26.817Z,19.2
2019-02-17T07:30:16.771Z,19.2
2019-02-17T07:31:06.831Z,19.1
2019-02-17T07:31:56.922Z,19.2
2019-02-17T07:32:47.229Z,19.1
2019-02-17T07:33:37.336Z,19.2
2019-02-17T07:34:26.910Z,19.1
2019-02-17T07:35:16.887Z,19.1
2019-02-17T07:36:07.476Z,19.1
2019-02-17T07:36:57.290Z,19.2
2019-02-17T07:37:47.292Z,19.1
2019-02-17T07:38:37.632Z,19.1
2019-02-17T07:39:27.417Z,19.1
2019-02-17T07:40:17.456Z,19.1
2019-02-17T07:41:07.521Z,19.1
2019-02-17T07:41:57.314Z,19.1
2019-02-17T07:42:47.654Z,19.1
2019-02-17T07:43:37.964Z,19.1
2019-02-17T07:44:28.043Z,19.1
2019-02-17T07:45:17.803Z,19.1
2019-02-17T07:46:08.126Z,19.1
2019-02-17T07:46:57.639Z,19.1
2019-02-17T07:47:47.969Z,19.1
2019-02-17T07:48:38.361Z,19.1
2019-02-17T07:49:27.837Z,19.1
2019-02-17T07:50:18.139Z,19.1
2019-02-17T07:51:07.448Z,19.1
2019-02-17T07:51:57.702Z,19.1
2019-02-17T07:52:48.616Z,19.1
2019-02-17T07:53:37.891Z,19.1
2019-02-17T07:54:27.670Z,19.1
2019-02-17T07:55:18.220Z,19.1
2019-02-17T07:56:08.811Z,19.1
2019-02-17T07:56:58.208Z,19.1
2019-02-17T07:57:47.835Z,19.1
2019-02-17T07:58:38.703Z,19.1
2019-02-17T07:59:28.485Z,19.1
2019-02-17T08:00:18.563Z,19.1
2019-02-17T08:01:10.208Z,19.1
2019-02-17T08:01:58.650Z,19.1
2019-02-17T08:02:50.928Z,19.1
2019-02-17T08:03:38.515Z,19.1
2019-02-17T08:04:29.377Z,19.1
2019-02-17T08:05:18.890Z,19.1
2019-02-17T08:06:08.947Z,19.1
2019-02-17T08:06:59.085Z,19.1
2019-02-17T08:07:49.059Z,19.1
2019-02-17T08:08:39.672Z,19
2019-02-17T08:09:29.728Z,19.1
2019-02-17T08:10:18.971Z,19.1
2019-02-17T08:11:09.852Z,19.1
2019-02-17T08:11:59.389Z,19
2019-02-17T08:12:49.694Z,19.1
2019-02-17T08:13:39.512Z,19.1
2019-02-17T08:14:29.905Z,19.1
2019-02-17T08:15:19.602Z,19.1
2019-02-17T08:16:09.395Z,19.1
2019-02-17T08:16:59.200Z,19
2019-02-17T08:17:50.084Z,19
2019-02-17T08:18:40.434Z,18.4
2019-02-17T08:19:30.419Z,18.6
2019-02-17T08:20:20.189Z,41.1
2019-02-17T08:21:09.977Z,55.2
2019-02-17T08:22:50.179Z,57.6
2019-02-17T08:23:40.429Z,55.3
2019-02-17T08:24:29.939Z,53.3
2019-02-17T08:25:25.429Z,52.1
2019-02-17T08:26:10.331Z,51.1
2019-02-17T08:27:00.368Z,50.4
2019-02-17T08:27:50.447Z,49.6
2019-02-17T08:28:43.149Z,48.9
2019-02-17T08:29:30.276Z,48.1
2019-02-17T08:30:20.603Z,47.5
2019-02-17T08:31:10.669Z,46.8
2019-02-17T08:32:00.456Z,46.1
2019-02-17T08:32:51.071Z,45.4
2019-02-17T08:33:41.115Z,44.8
2019-02-17T08:34:31.264Z,44.2
2019-02-17T08:35:20.677Z,43.6
2019-02-17T08:36:11.580Z,43
2019-02-17T08:37:01.356Z,42.4
2019-02-17T08:37:50.641Z,41.9
2019-02-17T08:38:41.468Z,41.4
2019-02-17T08:39:31.273Z,40.9
2019-02-17T08:40:21.030Z,40.4
2019-02-17T08:41:11.918Z,39.9
2019-02-17T08:42:00.930Z,39.4
2019-02-17T08:42:52.013Z,39
2019-02-17T08:43:40.975Z,38.5
2019-02-17T08:44:31.310Z,38.1
2019-02-17T08:45:22.195Z,37.8
2019-02-17T08:46:11.977Z,43.3
2019-02-17T08:47:02.337Z,51.3
2019-02-17T08:47:51.547Z,61.4
2019-02-17T08:48:42.435Z,62.3
2019-02-17T08:49:31.642Z,60.3
2019-02-17T08:50:23.140Z,59
2019-02-17T08:51:11.299Z,57.9
2019-02-17T08:52:03.578Z,56.9
2019-02-17T08:52:51.695Z,55.9
2019-02-17T08:53:42.005Z,55.1
2019-02-17T08:54:31.873Z,54.2
2019-02-17T08:55:22.225Z,53.3
2019-02-17T08:56:12.465Z,52.5
2019-02-17T08:57:03.005Z,51.6
2019-02-17T08:57:52.800Z,50.9
2019-02-17T08:58:42.184Z,50.1
2019-02-17T08:59:32.409Z,49.4
2019-02-17T09:00:23.226Z,48.6
2019-02-17T09:01:11.788Z,47.9
2019-02-17T09:02:08.911Z,47.3
2019-02-17T09:02:52.099Z,46.5
2019-02-17T09:03:43.014Z,45.9
2019-02-17T09:04:32.767Z,48.2
2019-02-17T09:05:23.090Z,51.1
2019-02-17T09:06:12.609Z,61.8
2019-02-17T09:07:02.436Z,65.6
2019-02-17T09:07:52.982Z,65.1
2019-02-17T09:08:42.507Z,63.3
2019-02-17T09:09:33.112Z,61.2
2019-02-17T09:10:22.330Z,59.9
2019-02-17T09:11:13.206Z,59.1
2019-02-17T09:12:03.538Z,58.4
2019-02-17T09:12:53.326Z,57.4
2019-02-17T09:13:42.391Z,56.4
2019-02-17T09:14:33.534Z,55.5
2019-02-17T09:15:23.828Z,54.7
2019-02-17T09:16:13.301Z,53.8
2019-02-17T09:17:03.896Z,52.9
2019-02-17T09:17:53.951Z,52.1
2019-02-17T09:18:44.008Z,51.3
2019-02-17T09:19:33.494Z,52.7
2019-02-17T09:20:24.218Z,56.3
2019-02-17T09:21:14.162Z,64.7
2019-02-17T09:22:04.045Z,67.1
2019-02-17T09:22:53.746Z,67.1
2019-02-17T09:23:43.549Z,65.6
2019-02-17T09:24:34.127Z,63.8
2019-02-17T09:25:23.926Z,62.4
2019-02-17T09:26:13.979Z,61.4
2019-02-17T09:27:04.320Z,60.6
2019-02-17T09:27:54.092Z,59.7
2019-02-17T09:28:44.692Z,58.8
2019-02-17T09:29:34.471Z,57.8
2019-02-17T09:30:24.545Z,56.9
2019-02-17T09:31:14.569Z,56
2019-02-17T09:32:04.660Z,56.3
2019-02-17T09:32:54.470Z,57.9
2019-02-17T09:33:44.752Z,63.4
2019-02-17T09:34:34.879Z,67.6
2019-02-17T09:35:24.142Z,68.1
2019-02-17T09:36:14.662Z,67.8
2019-02-17T09:37:04.782Z,65.9
2019-02-17T09:37:55.037Z,63.8
2019-02-17T09:38:45.589Z,62.1
2019-02-17T09:39:35.909Z,60.8
2019-02-17T09:40:24.934Z,59.8
2019-02-17T09:41:14.990Z,59.1
2019-02-17T09:42:05.329Z,58.3
2019-02-17T09:42:56.131Z,58.4
2019-02-17T09:43:48.584Z,59.3
2019-02-17T09:44:35.975Z,65.3
2019-02-17T09:45:25.341Z,67.9
2019-02-17T09:46:16.088Z,68.4
2019-02-17T09:47:05.986Z,68.1
2019-02-17T09:47:55.726Z,66.6
2019-02-17T09:48:46.253Z,64.4
2019-02-17T09:49:36.046Z,62.9
2019-02-17T09:50:25.951Z,62.9
2019-02-17T09:51:15.963Z,63.8
2019-02-17T09:52:06.298Z,64.9
2019-02-17T09:52:55.530Z,65.8
2019-02-17T09:53:47.009Z,66
2019-02-17T09:54:36.476Z,65.8
2019-02-17T09:55:26.546Z,65.3
2019-02-17T09:56:16.576Z,64.8
2019-02-17T09:57:06.636Z,64.4
2019-02-17T09:57:56.640Z,64.4
2019-02-17T09:58:47.235Z,64.7
2019-02-17T09:59:36.730Z,64.9
2019-02-17T10:00:26.619Z,64.9
2019-02-17T10:01:17.415Z,64.9
2019-02-17T10:02:06.168Z,64.7
2019-02-17T10:02:56.760Z,64.5
2019-02-17T10:03:46.317Z,64.3
2019-02-17T10:04:36.867Z,64.2
2019-02-17T10:07:03.932Z,64.2
2019-02-17T10:07:54.570Z,64.1
2019-02-17T10:08:44.666Z,63.9
2019-02-17T10:09:34.102Z,63.8
2019-02-17T10:10:25.186Z,63.7
2019-02-17T10:11:14.492Z,63.6
2019-02-17T10:12:04.525Z,63.4
2019-02-17T10:12:55.157Z,63.3
2019-02-17T10:13:45.410Z,63.2
2019-02-17T10:14:34.977Z,63.1
2019-02-17T10:15:25.334Z,63.1
2019-02-17T10:16:15.124Z,63.1
2019-02-17T10:17:05.102Z,63.1
2019-02-17T10:17:54.762Z,63.2
2019-02-17T10:18:45.763Z,63.3
2019-02-17T10:19:35.616Z,63.3
2019-02-17T10:20:27.200Z,63.3
2019-02-17T10:21:15.176Z,63.3
2019-02-17T10:22:05.761Z,63.3
2019-02-17T10:22:55.604Z,63.1
2019-02-17T10:23:45.639Z,63
2019-02-17T10:24:35.144Z,62.9
2019-02-17T10:25:25.794Z,63
2019-02-17T10:26:15.347Z,63.1
2019-02-17T10:27:05.356Z,63.2
2019-02-17T10:27:55.934Z,63.3
2019-02-17T10:28:45.971Z,63.4
2019-02-17T10:29:36.301Z,63.4
2019-02-17T10:30:26.849Z,63.5
2019-02-17T10:31:16.429Z,63.6
2019-02-17T10:32:06.470Z,63.6
2019-02-17T10:32:56.261Z,63.8
2019-02-17T10:33:46.352Z,63.8
2019-02-17T10:34:36.204Z,63.5
2019-02-17T10:35:25.985Z,63.3
2019-02-17T10:36:16.498Z,63.1
2019-02-17T10:37:05.978Z,63.1
2019-02-17T10:37:56.879Z,63.1
2019-02-17T10:38:46.446Z,63.3
2019-02-17T10:39:36.720Z,63.3
2019-02-17T10:40:27.115Z,63.3
2019-02-17T10:41:16.840Z,63.3
2019-02-17T10:42:06.605Z,63.1
2019-02-17T10:42:57.218Z,63.1
2019-02-17T10:43:47.023Z,63.1
2019-02-17T10:44:37.355Z,63.2
2019-02-17T10:45:26.907Z,63.3
2019-02-17T10:46:16.716Z,63.4
2019-02-17T10:47:07.245Z,63.5
2019-02-17T10:47:57.557Z,63.6
2019-02-17T10:48:48.007Z,63.6
2019-02-17T10:49:37.122Z,63.7
2019-02-17T10:50:26.915Z,63.8
2019-02-17T10:51:17.838Z,63.9
2019-02-17T10:52:07.585Z,64.1
2019-02-17T10:52:57.637Z,64.3
2019-02-17T10:53:47.413Z,64.4
2019-02-17T10:54:38.022Z,64.4
2019-02-17T10:55:28.099Z,64.5
2019-02-17T10:56:17.862Z,64.6
2019-02-17T10:57:07.928Z,64.6
2019-02-17T10:57:58.250Z,64.7
2019-02-17T10:58:48.054Z,64.8
2019-02-17T10:59:38.842Z,64.8
2019-02-17T11:00:28.177Z,64.9
2019-02-17T11:01:18.705Z,64.9
2019-02-17T11:02:08.536Z,65
2019-02-17T11:02:58.617Z,65.1
2019-02-17T11:03:48.635Z,65.1
2019-02-17T11:04:38.734Z,65.2
2019-02-17T11:05:28.970Z,65.3
2019-02-17T11:06:18.830Z,65.3
2019-02-17T11:07:07.809Z,65.3
2019-02-17T11:07:58.939Z,65.3
2019-02-17T11:08:49.054Z,65.3
2019-02-17T11:09:39.171Z,65.4
2019-02-17T11:10:28.581Z,65.4
2019-02-17T11:11:18.901Z,65.5
2019-02-17T11:12:09.733Z,65.6
2019-02-17T11:12:59.078Z,65.6
2019-02-17T11:13:49.329Z,65.7
2019-02-17T11:14:39.598Z,65.7